sensor_id;sensor_type;location;lat;lon;timestamp;P1;durP1;ratioP1;P2;durP2;ratioP2
5684;SDS011;2865;53.114;9.130;2024-03-02T00:00:48;12.70;;;10.67;;
5684;SDS011;2865;53.114;9.130;2024-03-02T00:03:11;16.20;;;11.87;;
5684;SDS011;2865;53.114;9.130;2024-03-02T00:05:36;11.90;;;10.00;;
5684;SDS011;2865;53.114;9.130;2024-03-02T00:08:01;16.43;;;11.77;;
5684;SDS011;2865;53.114;9.130;2024-03-02T00:10:42;16.20;;;11.97;;
5684;SDS011;2865;53.114;9.130;2024-03-02T00:13:08;17.00;;;11.33;;
5684;SDS011;2865;53.114;9.130;2024-03-02T00:15:40;12.80;;;9.73;;
5684;SDS011;2865;53.114;9.130;2024-03-02T00:18:11;15.77;;;10.57;;
5684;SDS011;2865;53.114;9.130;2024-03-02T00:20:38;14.03;;;10.87;;
5684;SDS011;2865;53.114;9.130;2024-03-02T00:23:04;17.60;;;10.97;;
5684;SDS011;2865;53.114;9.130;2024-03-02T00:28:01;15.30;;;11.70;;
5684;SDS011;2865;53.114;9.130;2024-03-02T00:30:37;15.10;;;10.37;;
5684;SDS011;2865;53.114;9.130;2024-03-02T00:33:09;12.97;;;11.10;;
5684;SDS011;2865;53.114;9.130;2024-03-02T00:35:34;14.10;;;11.53;;
5684;SDS011;2865;53.114;9.130;2024-03-02T00:38:06;14.00;;;11.00;;
5684;SDS011;2865;53.114;9.130;2024-03-02T00:40:31;13.87;;;10.70;;
5684;SDS011;2865;53.114;9.130;2024-03-02T00:42:56;16.60;;;11.17;;
5684;SDS011;2865;53.114;9.130;2024-03-02T00:45:22;15.80;;;11.73;;
5684;SDS011;2865;53.114;9.130;2024-03-02T00:47:47;14.70;;;12.30;;
5684;SDS011;2865;53.114;9.130;2024-03-02T00:50:12;16.23;;;12.13;;
5684;SDS011;2865;53.114;9.130;2024-03-02T00:52:37;14.40;;;11.40;;
5684;SDS011;2865;53.114;9.130;2024-03-02T00:55:03;13.70;;;11.43;;
5684;SDS011;2865;53.114;9.130;2024-03-02T00:57:29;15.30;;;11.97;;
5684;SDS011;2865;53.114;9.130;2024-03-02T00:59:54;15.37;;;11.40;;
5684;SDS011;2865;53.114;9.130;2024-03-02T01:02:20;20.43;;;13.00;;
5684;SDS011;2865;53.114;9.130;2024-03-02T01:04:46;16.10;;;12.37;;
5684;SDS011;2865;53.114;9.130;2024-03-02T01:07:11;16.47;;;11.90;;
5684;SDS011;2865;53.114;9.130;2024-03-02T01:09:36;13.90;;;11.63;;
5684;SDS011;2865;53.114;9.130;2024-03-02T01:12:02;17.63;;;11.80;;
5684;SDS011;2865;53.114;9.130;2024-03-02T01:14:27;14.53;;;11.07;;
5684;SDS011;2865;53.114;9.130;2024-03-02T01:16:53;15.33;;;11.40;;
5684;SDS011;2865;53.114;9.130;2024-03-02T01:19:18;16.57;;;11.73;;
5684;SDS011;2865;53.114;9.130;2024-03-02T01:21:43;17.53;;;12.60;;
5684;SDS011;2865;53.114;9.130;2024-03-02T01:24:08;15.60;;;11.87;;
5684;SDS011;2865;53.114;9.130;2024-03-02T01:26:34;17.03;;;12.13;;
5684;SDS011;2865;53.114;9.130;2024-03-02T01:28:59;16.00;;;12.63;;
5684;SDS011;2865;53.114;9.130;2024-03-02T01:31:24;15.60;;;12.43;;
5684;SDS011;2865;53.114;9.130;2024-03-02T01:33:50;14.67;;;11.47;;
5684;SDS011;2865;53.114;9.130;2024-03-02T01:36:15;18.70;;;12.73;;
5684;SDS011;2865;53.114;9.130;2024-03-02T01:38:40;18.00;;;13.30;;
5684;SDS011;2865;53.114;9.130;2024-03-02T01:41:05;18.40;;;13.23;;
5684;SDS011;2865;53.114;9.130;2024-03-02T01:43:31;17.80;;;13.70;;
5684;SDS011;2865;53.114;9.130;2024-03-02T01:45:56;14.97;;;12.87;;
5684;SDS011;2865;53.114;9.130;2024-03-02T01:48:21;18.37;;;12.23;;
5684;SDS011;2865;53.114;9.130;2024-03-02T01:50:46;15.60;;;12.90;;
5684;SDS011;2865;53.114;9.130;2024-03-02T01:53:12;18.43;;;12.90;;
5684;SDS011;2865;53.114;9.130;2024-03-02T01:55:37;14.10;;;11.50;;
5684;SDS011;2865;53.114;9.130;2024-03-02T01:58:02;19.67;;;13.07;;
5684;SDS011;2865;53.114;9.130;2024-03-02T02:00:28;19.60;;;13.63;;
5684;SDS011;2865;53.114;9.130;2024-03-02T02:02:53;16.03;;;11.50;;
5684;SDS011;2865;53.114;9.130;2024-03-02T02:05:18;15.83;;;12.87;;
5684;SDS011;2865;53.114;9.130;2024-03-02T02:07:44;16.13;;;12.47;;
5684;SDS011;2865;53.114;9.130;2024-03-02T02:10:10;16.60;;;13.00;;
5684;SDS011;2865;53.114;9.130;2024-03-02T02:12:35;16.30;;;11.73;;
5684;SDS011;2865;53.114;9.130;2024-03-02T02:15:01;14.73;;;13.13;;
5684;SDS011;2865;53.114;9.130;2024-03-02T02:17:26;14.93;;;12.40;;
5684;SDS011;2865;53.114;9.130;2024-03-02T02:19:51;15.93;;;13.20;;
5684;SDS011;2865;53.114;9.130;2024-03-02T02:22:17;17.33;;;13.10;;
5684;SDS011;2865;53.114;9.130;2024-03-02T02:24:42;15.20;;;12.23;;
5684;SDS011;2865;53.114;9.130;2024-03-02T02:27:08;15.93;;;12.43;;
5684;SDS011;2865;53.114;9.130;2024-03-02T02:29:33;18.47;;;13.77;;
5684;SDS011;2865;53.114;9.130;2024-03-02T02:31:58;18.73;;;14.17;;
5684;SDS011;2865;53.114;9.130;2024-03-02T02:34:23;15.37;;;12.50;;
5684;SDS011;2865;53.114;9.130;2024-03-02T02:36:49;16.63;;;12.27;;
5684;SDS011;2865;53.114;9.130;2024-03-02T02:39:15;16.37;;;12.43;;
5684;SDS011;2865;53.114;9.130;2024-03-02T02:41:39;17.60;;;12.87;;
5684;SDS011;2865;53.114;9.130;2024-03-02T02:44:04;15.67;;;12.60;;
5684;SDS011;2865;53.114;9.130;2024-03-02T02:46:30;16.87;;;13.37;;
5684;SDS011;2865;53.114;9.130;2024-03-02T02:48:55;16.10;;;13.30;;
5684;SDS011;2865;53.114;9.130;2024-03-02T02:51:20;15.60;;;13.27;;
5684;SDS011;2865;53.114;9.130;2024-03-02T02:53:46;18.67;;;13.60;;
5684;SDS011;2865;53.114;9.130;2024-03-02T02:56:11;17.17;;;12.30;;
5684;SDS011;2865;53.114;9.130;2024-03-02T02:58:37;17.80;;;13.73;;
5684;SDS011;2865;53.114;9.130;2024-03-02T03:01:02;18.40;;;12.90;;
5684;SDS011;2865;53.114;9.130;2024-03-02T03:03:28;15.70;;;12.47;;
5684;SDS011;2865;53.114;9.130;2024-03-02T03:05:53;16.40;;;13.20;;
5684;SDS011;2865;53.114;9.130;2024-03-02T03:08:18;17.53;;;13.33;;
5684;SDS011;2865;53.114;9.130;2024-03-02T03:10:44;15.63;;;12.70;;
5684;SDS011;2865;53.114;9.130;2024-03-02T03:13:09;16.83;;;12.37;;
5684;SDS011;2865;53.114;9.130;2024-03-02T03:15:34;17.17;;;12.77;;
5684;SDS011;2865;53.114;9.130;2024-03-02T03:17:59;14.37;;;12.13;;
5684;SDS011;2865;53.114;9.130;2024-03-02T03:20:25;14.60;;;13.07;;
5684;SDS011;2865;53.114;9.130;2024-03-02T03:22:50;14.13;;;11.33;;
5684;SDS011;2865;53.114;9.130;2024-03-02T03:25:15;17.93;;;13.50;;
5684;SDS011;2865;53.114;9.130;2024-03-02T03:27:41;16.33;;;12.77;;
5684;SDS011;2865;53.114;9.130;2024-03-02T03:30:06;17.00;;;12.53;;
5684;SDS011;2865;53.114;9.130;2024-03-02T03:32:32;15.50;;;12.10;;
5684;SDS011;2865;53.114;9.130;2024-03-02T03:34:57;14.33;;;12.10;;
5684;SDS011;2865;53.114;9.130;2024-03-02T03:37:22;15.67;;;12.10;;
5684;SDS011;2865;53.114;9.130;2024-03-02T03:39:48;16.07;;;11.60;;
5684;SDS011;2865;53.114;9.130;2024-03-02T03:42:13;13.23;;;11.40;;
5684;SDS011;2865;53.114;9.130;2024-03-02T03:44:38;21.87;;;12.03;;
5684;SDS011;2865;53.114;9.130;2024-03-02T03:47:04;17.20;;;12.03;;
5684;SDS011;2865;53.114;9.130;2024-03-02T03:49:29;13.80;;;11.40;;
5684;SDS011;2865;53.114;9.130;2024-03-02T03:51:54;14.40;;;11.20;;
5684;SDS011;2865;53.114;9.130;2024-03-02T03:54:19;14.93;;;10.43;;
5684;SDS011;2865;53.114;9.130;2024-03-02T03:56:45;13.20;;;10.77;;
5684;SDS011;2865;53.114;9.130;2024-03-02T03:59:10;16.63;;;11.00;;
5684;SDS011;2865;53.114;9.130;2024-03-02T04:01:35;14.53;;;11.80;;
5684;SDS011;2865;53.114;9.130;2024-03-02T04:04:01;14.60;;;10.80;;
5684;SDS011;2865;53.114;9.130;2024-03-02T04:06:27;12.80;;;10.90;;
5684;SDS011;2865;53.114;9.130;2024-03-02T04:08:52;15.90;;;11.97;;
5684;SDS011;2865;53.114;9.130;2024-03-02T04:11:17;18.03;;;10.73;;
5684;SDS011;2865;53.114;9.130;2024-03-02T04:13:43;13.40;;;11.90;;
5684;SDS011;2865;53.114;9.130;2024-03-02T04:16:08;18.43;;;10.73;;
5684;SDS011;2865;53.114;9.130;2024-03-02T04:18:33;13.87;;;10.90;;
5684;SDS011;2865;53.114;9.130;2024-03-02T04:20:58;13.10;;;10.77;;
5684;SDS011;2865;53.114;9.130;2024-03-02T04:23:24;16.33;;;10.57;;
5684;SDS011;2865;53.114;9.130;2024-03-02T04:25:49;15.60;;;10.40;;
5684;SDS011;2865;53.114;9.130;2024-03-02T04:28:15;13.33;;;9.63;;
5684;SDS011;2865;53.114;9.130;2024-03-02T04:30:40;14.30;;;11.20;;
5684;SDS011;2865;53.114;9.130;2024-03-02T04:33:05;17.13;;;11.90;;
5684;SDS011;2865;53.114;9.130;2024-03-02T04:35:30;16.77;;;11.70;;
5684;SDS011;2865;53.114;9.130;2024-03-02T04:37:56;17.77;;;11.90;;
5684;SDS011;2865;53.114;9.130;2024-03-02T04:40:21;13.73;;;11.67;;
5684;SDS011;2865;53.114;9.130;2024-03-02T04:42:46;15.13;;;11.83;;
5684;SDS011;2865;53.114;9.130;2024-03-02T04:45:11;15.17;;;11.57;;
5684;SDS011;2865;53.114;9.130;2024-03-02T04:47:37;12.03;;;10.80;;
5684;SDS011;2865;53.114;9.130;2024-03-02T04:50:02;13.37;;;11.40;;
5684;SDS011;2865;53.114;9.130;2024-03-02T04:52:28;15.20;;;11.87;;
5684;SDS011;2865;53.114;9.130;2024-03-02T04:54:54;15.40;;;11.67;;
5684;SDS011;2865;53.114;9.130;2024-03-02T04:57:25;13.53;;;11.43;;
5684;SDS011;2865;53.114;9.130;2024-03-02T04:59:51;14.30;;;12.17;;
5684;SDS011;2865;53.114;9.130;2024-03-02T05:02:16;16.13;;;12.10;;
5684;SDS011;2865;53.114;9.130;2024-03-02T05:04:41;17.90;;;11.03;;
5684;SDS011;2865;53.114;9.130;2024-03-02T05:07:06;15.83;;;11.30;;
5684;SDS011;2865;53.114;9.130;2024-03-02T05:09:32;18.53;;;12.23;;
5684;SDS011;2865;53.114;9.130;2024-03-02T05:11:57;17.47;;;12.93;;
5684;SDS011;2865;53.114;9.130;2024-03-02T05:14:24;15.20;;;11.60;;
5684;SDS011;2865;53.114;9.130;2024-03-02T05:16:49;11.77;;;10.47;;
5684;SDS011;2865;53.114;9.130;2024-03-02T05:19:15;13.40;;;11.10;;
5684;SDS011;2865;53.114;9.130;2024-03-02T05:21:40;13.00;;;10.73;;
5684;SDS011;2865;53.114;9.130;2024-03-02T05:24:05;15.50;;;11.60;;
5684;SDS011;2865;53.114;9.130;2024-03-02T05:26:31;16.97;;;12.30;;
5684;SDS011;2865;53.114;9.130;2024-03-02T05:28:56;18.90;;;12.30;;
5684;SDS011;2865;53.114;9.130;2024-03-02T05:31:21;18.17;;;12.93;;
5684;SDS011;2865;53.114;9.130;2024-03-02T05:33:47;15.93;;;12.27;;
5684;SDS011;2865;53.114;9.130;2024-03-02T05:36:12;19.67;;;12.70;;
5684;SDS011;2865;53.114;9.130;2024-03-02T05:38:37;13.13;;;11.13;;
5684;SDS011;2865;53.114;9.130;2024-03-02T05:41:03;15.90;;;12.23;;
5684;SDS011;2865;53.114;9.130;2024-03-02T05:43:28;15.73;;;11.73;;
5684;SDS011;2865;53.114;9.130;2024-03-02T05:45:53;16.70;;;12.47;;
5684;SDS011;2865;53.114;9.130;2024-03-02T05:48:19;19.00;;;13.20;;
5684;SDS011;2865;53.114;9.130;2024-03-02T05:50:44;17.23;;;12.80;;
5684;SDS011;2865;53.114;9.130;2024-03-02T05:53:10;16.80;;;12.93;;
5684;SDS011;2865;53.114;9.130;2024-03-02T05:55:35;15.67;;;12.27;;
5684;SDS011;2865;53.114;9.130;2024-03-02T05:58:00;17.63;;;12.13;;
5684;SDS011;2865;53.114;9.130;2024-03-02T06:00:45;16.83;;;12.67;;
5684;SDS011;2865;53.114;9.130;2024-03-02T06:03:11;16.90;;;12.93;;
5684;SDS011;2865;53.114;9.130;2024-03-02T06:05:36;17.90;;;13.10;;
5684;SDS011;2865;53.114;9.130;2024-03-02T06:08:02;17.73;;;12.73;;
5684;SDS011;2865;53.114;9.130;2024-03-02T06:10:27;17.90;;;12.87;;
5684;SDS011;2865;53.114;9.130;2024-03-02T06:12:53;19.03;;;13.20;;
5684;SDS011;2865;53.114;9.130;2024-03-02T06:15:18;15.07;;;12.00;;
5684;SDS011;2865;53.114;9.130;2024-03-02T06:17:44;20.33;;;13.53;;
5684;SDS011;2865;53.114;9.130;2024-03-02T06:20:09;18.57;;;13.23;;
5684;SDS011;2865;53.114;9.130;2024-03-02T06:22:34;20.93;;;14.40;;
5684;SDS011;2865;53.114;9.130;2024-03-02T06:25:00;19.20;;;14.27;;
5684;SDS011;2865;53.114;9.130;2024-03-02T06:27:25;19.73;;;13.80;;
5684;SDS011;2865;53.114;9.130;2024-03-02T06:29:50;19.20;;;14.20;;
5684;SDS011;2865;53.114;9.130;2024-03-02T06:32:16;22.07;;;16.07;;
5684;SDS011;2865;53.114;9.130;2024-03-02T06:34:41;19.70;;;14.63;;
5684;SDS011;2865;53.114;9.130;2024-03-02T06:37:06;19.03;;;15.87;;
5684;SDS011;2865;53.114;9.130;2024-03-02T06:39:32;24.20;;;15.40;;
5684;SDS011;2865;53.114;9.130;2024-03-02T06:41:57;23.17;;;13.77;;
5684;SDS011;2865;53.114;9.130;2024-03-02T06:44:22;22.30;;;14.77;;
5684;SDS011;2865;53.114;9.130;2024-03-02T06:46:47;19.60;;;14.40;;
5684;SDS011;2865;53.114;9.130;2024-03-02T06:49:13;20.60;;;14.60;;
5684;SDS011;2865;53.114;9.130;2024-03-02T06:51:38;23.10;;;15.00;;
5684;SDS011;2865;53.114;9.130;2024-03-02T06:54:03;20.47;;;14.63;;
5684;SDS011;2865;53.114;9.130;2024-03-02T06:56:29;21.80;;;14.30;;
5684;SDS011;2865;53.114;9.130;2024-03-02T06:58:54;17.20;;;13.67;;
5684;SDS011;2865;53.114;9.130;2024-03-02T07:01:19;24.00;;;15.00;;
5684;SDS011;2865;53.114;9.130;2024-03-02T07:03:46;18.37;;;13.43;;
5684;SDS011;2865;53.114;9.130;2024-03-02T07:06:11;20.33;;;15.03;;
5684;SDS011;2865;53.114;9.130;2024-03-02T07:08:36;24.63;;;14.80;;
5684;SDS011;2865;53.114;9.130;2024-03-02T07:11:01;23.20;;;15.53;;
5684;SDS011;2865;53.114;9.130;2024-03-02T07:13:27;21.70;;;15.67;;
5684;SDS011;2865;53.114;9.130;2024-03-02T07:15:52;17.93;;;14.20;;
5684;SDS011;2865;53.114;9.130;2024-03-02T07:18:23;23.53;;;15.10;;
5684;SDS011;2865;53.114;9.130;2024-03-02T07:20:49;21.13;;;14.73;;
5684;SDS011;2865;53.114;9.130;2024-03-02T07:23:14;19.37;;;13.90;;
5684;SDS011;2865;53.114;9.130;2024-03-02T07:25:39;25.60;;;14.90;;
5684;SDS011;2865;53.114;9.130;2024-03-02T07:28:05;18.10;;;14.17;;
5684;SDS011;2865;53.114;9.130;2024-03-02T07:30:30;18.50;;;14.50;;
5684;SDS011;2865;53.114;9.130;2024-03-02T07:32:56;19.93;;;14.73;;
5684;SDS011;2865;53.114;9.130;2024-03-02T07:35:21;19.47;;;13.60;;
5684;SDS011;2865;53.114;9.130;2024-03-02T07:37:46;22.73;;;14.70;;
5684;SDS011;2865;53.114;9.130;2024-03-02T07:40:11;22.70;;;15.17;;
5684;SDS011;2865;53.114;9.130;2024-03-02T07:42:38;20.20;;;14.63;;
5684;SDS011;2865;53.114;9.130;2024-03-02T07:45:02;19.40;;;15.10;;
5684;SDS011;2865;53.114;9.130;2024-03-02T07:47:28;15.97;;;12.63;;
5684;SDS011;2865;53.114;9.130;2024-03-02T07:49:53;22.20;;;15.70;;
5684;SDS011;2865;53.114;9.130;2024-03-02T07:52:19;23.20;;;14.87;;
5684;SDS011;2865;53.114;9.130;2024-03-02T07:54:44;18.57;;;13.80;;
5684;SDS011;2865;53.114;9.130;2024-03-02T07:57:10;19.20;;;14.73;;
5684;SDS011;2865;53.114;9.130;2024-03-02T07:59:35;17.73;;;13.23;;
5684;SDS011;2865;53.114;9.130;2024-03-02T08:02:00;18.07;;;13.73;;
5684;SDS011;2865;53.114;9.130;2024-03-02T08:04:26;18.73;;;14.20;;
5684;SDS011;2865;53.114;9.130;2024-03-02T08:06:51;21.23;;;14.00;;
5684;SDS011;2865;53.114;9.130;2024-03-02T08:09:16;18.60;;;12.70;;
5684;SDS011;2865;53.114;9.130;2024-03-02T08:11:41;20.27;;;13.37;;
5684;SDS011;2865;53.114;9.130;2024-03-02T08:14:07;16.00;;;11.43;;
5684;SDS011;2865;53.114;9.130;2024-03-02T08:16:32;19.13;;;14.40;;
5684;SDS011;2865;53.114;9.130;2024-03-02T08:18:57;17.77;;;13.10;;
5684;SDS011;2865;53.114;9.130;2024-03-02T08:21:23;19.10;;;13.67;;
5684;SDS011;2865;53.114;9.130;2024-03-02T08:23:48;22.13;;;13.03;;
5684;SDS011;2865;53.114;9.130;2024-03-02T08:26:13;17.20;;;12.90;;
5684;SDS011;2865;53.114;9.130;2024-03-02T08:28:38;16.27;;;12.60;;
5684;SDS011;2865;53.114;9.130;2024-03-02T08:31:07;18.20;;;12.77;;
5684;SDS011;2865;53.114;9.130;2024-03-02T08:33:32;19.43;;;12.43;;
5684;SDS011;2865;53.114;9.130;2024-03-02T08:35:57;20.20;;;12.30;;
5684;SDS011;2865;53.114;9.130;2024-03-02T08:38:23;17.97;;;12.80;;
5684;SDS011;2865;53.114;9.130;2024-03-02T08:40:48;16.73;;;13.23;;
5684;SDS011;2865;53.114;9.130;2024-03-02T08:43:13;17.10;;;12.17;;
5684;SDS011;2865;53.114;9.130;2024-03-02T08:45:38;18.00;;;12.33;;
5684;SDS011;2865;53.114;9.130;2024-03-02T08:48:04;21.20;;;12.70;;
5684;SDS011;2865;53.114;9.130;2024-03-02T08:50:30;14.70;;;10.87;;
5684;SDS011;2865;53.114;9.130;2024-03-02T08:52:55;13.90;;;11.17;;
5684;SDS011;2865;53.114;9.130;2024-03-02T08:55:21;18.57;;;12.30;;
5684;SDS011;2865;53.114;9.130;2024-03-02T08:57:46;20.63;;;11.97;;
5684;SDS011;2865;53.114;9.130;2024-03-02T09:00:11;18.33;;;12.53;;
5684;SDS011;2865;53.114;9.130;2024-03-02T09:02:37;20.17;;;12.60;;
5684;SDS011;2865;53.114;9.130;2024-03-02T09:05:02;19.53;;;12.07;;
5684;SDS011;2865;53.114;9.130;2024-03-02T09:07:28;18.67;;;12.20;;
5684;SDS011;2865;53.114;9.130;2024-03-02T09:09:53;19.50;;;12.23;;
5684;SDS011;2865;53.114;9.130;2024-03-02T09:12:19;19.20;;;12.17;;
5684;SDS011;2865;53.114;9.130;2024-03-02T09:14:44;19.03;;;12.87;;
5684;SDS011;2865;53.114;9.130;2024-03-02T09:17:09;18.33;;;11.57;;
5684;SDS011;2865;53.114;9.130;2024-03-02T09:19:35;18.87;;;11.80;;
5684;SDS011;2865;53.114;9.130;2024-03-02T09:22:00;17.53;;;11.80;;
5684;SDS011;2865;53.114;9.130;2024-03-02T09:24:25;19.00;;;13.37;;
5684;SDS011;2865;53.114;9.130;2024-03-02T09:26:51;17.63;;;12.07;;
5684;SDS011;2865;53.114;9.130;2024-03-02T09:29:16;16.00;;;12.10;;
5684;SDS011;2865;53.114;9.130;2024-03-02T09:31:42;17.00;;;12.83;;
5684;SDS011;2865;53.114;9.130;2024-03-02T09:34:07;16.93;;;12.13;;
5684;SDS011;2865;53.114;9.130;2024-03-02T09:36:32;17.40;;;12.20;;
5684;SDS011;2865;53.114;9.130;2024-03-02T09:38:57;16.03;;;11.93;;
5684;SDS011;2865;53.114;9.130;2024-03-02T09:41:23;20.47;;;12.20;;
5684;SDS011;2865;53.114;9.130;2024-03-02T09:43:48;15.20;;;12.00;;
5684;SDS011;2865;53.114;9.130;2024-03-02T09:46:13;18.10;;;12.57;;
5684;SDS011;2865;53.114;9.130;2024-03-02T09:48:38;14.70;;;11.90;;
5684;SDS011;2865;53.114;9.130;2024-03-02T09:51:04;16.67;;;12.77;;
5684;SDS011;2865;53.114;9.130;2024-03-02T09:53:31;18.63;;;12.63;;
5684;SDS011;2865;53.114;9.130;2024-03-02T09:55:55;17.67;;;12.90;;
5684;SDS011;2865;53.114;9.130;2024-03-02T09:58:20;18.10;;;11.60;;
5684;SDS011;2865;53.114;9.130;2024-03-02T10:00:46;14.73;;;11.07;;
5684;SDS011;2865;53.114;9.130;2024-03-02T10:03:11;18.70;;;11.80;;
5684;SDS011;2865;53.114;9.130;2024-03-02T10:05:36;17.77;;;11.70;;
5684;SDS011;2865;53.114;9.130;2024-03-02T10:08:02;13.47;;;10.67;;
5684;SDS011;2865;53.114;9.130;2024-03-02T10:13:03;16.57;;;11.40;;
5684;SDS011;2865;53.114;9.130;2024-03-02T10:15:28;13.77;;;10.53;;
5684;SDS011;2865;53.114;9.130;2024-03-02T10:17:54;14.03;;;10.80;;
5684;SDS011;2865;53.114;9.130;2024-03-02T10:20:22;15.40;;;11.27;;
5684;SDS011;2865;53.114;9.130;2024-03-02T10:22:49;15.27;;;10.70;;
5684;SDS011;2865;53.114;9.130;2024-03-02T10:27:52;14.67;;;10.93;;
5684;SDS011;2865;53.114;9.130;2024-03-02T10:30:17;13.57;;;10.87;;
5684;SDS011;2865;53.114;9.130;2024-03-02T10:32:42;14.67;;;10.37;;
5684;SDS011;2865;53.114;9.130;2024-03-02T10:35:07;16.83;;;11.17;;
5684;SDS011;2865;53.114;9.130;2024-03-02T10:37:33;13.80;;;10.10;;
5684;SDS011;2865;53.114;9.130;2024-03-02T10:40:03;11.87;;;9.73;;
5684;SDS011;2865;53.114;9.130;2024-03-02T10:42:23;12.17;;;9.67;;
5684;SDS011;2865;53.114;9.130;2024-03-02T10:44:49;12.83;;;9.90;;
5684;SDS011;2865;53.114;9.130;2024-03-02T10:47:14;13.40;;;9.30;;
5684;SDS011;2865;53.114;9.130;2024-03-02T10:49:39;14.57;;;9.10;;
5684;SDS011;2865;53.114;9.130;2024-03-02T10:52:05;11.53;;;8.40;;
5684;SDS011;2865;53.114;9.130;2024-03-02T10:54:30;11.37;;;8.33;;
5684;SDS011;2865;53.114;9.130;2024-03-02T10:56:58;14.43;;;9.43;;
5684;SDS011;2865;53.114;9.130;2024-03-02T10:59:24;13.33;;;8.73;;
5684;SDS011;2865;53.114;9.130;2024-03-02T11:01:56;13.20;;;9.57;;
5684;SDS011;2865;53.114;9.130;2024-03-02T11:04:21;10.63;;;7.60;;
5684;SDS011;2865;53.114;9.130;2024-03-02T11:06:48;10.17;;;8.30;;
5684;SDS011;2865;53.114;9.130;2024-03-02T11:09:13;11.27;;;8.50;;
5684;SDS011;2865;53.114;9.130;2024-03-02T11:11:40;10.20;;;8.20;;
5684;SDS011;2865;53.114;9.130;2024-03-02T11:14:06;14.50;;;9.70;;
5684;SDS011;2865;53.114;9.130;2024-03-02T11:16:33;14.47;;;8.97;;
5684;SDS011;2865;53.114;9.130;2024-03-02T11:18:57;9.87;;;8.37;;
5684;SDS011;2865;53.114;9.130;2024-03-02T11:21:23;11.43;;;8.53;;
5684;SDS011;2865;53.114;9.130;2024-03-02T11:23:48;10.40;;;8.70;;
5684;SDS011;2865;53.114;9.130;2024-03-02T11:26:21;10.83;;;7.90;;
5684;SDS011;2865;53.114;9.130;2024-03-02T11:28:45;11.70;;;8.50;;
5684;SDS011;2865;53.114;9.130;2024-03-02T11:31:11;11.27;;;8.27;;
5684;SDS011;2865;53.114;9.130;2024-03-02T11:33:36;12.07;;;8.80;;
5684;SDS011;2865;53.114;9.130;2024-03-02T11:36:02;11.97;;;8.53;;
5684;SDS011;2865;53.114;9.130;2024-03-02T11:38:28;10.77;;;7.93;;
5684;SDS011;2865;53.114;9.130;2024-03-02T11:40:52;12.00;;;8.10;;
5684;SDS011;2865;53.114;9.130;2024-03-02T11:43:18;11.97;;;7.93;;
5684;SDS011;2865;53.114;9.130;2024-03-02T11:45:43;11.50;;;8.37;;
5684;SDS011;2865;53.114;9.130;2024-03-02T11:48:10;10.17;;;7.00;;
5684;SDS011;2865;53.114;9.130;2024-03-02T11:50:35;10.23;;;7.30;;
5684;SDS011;2865;53.114;9.130;2024-03-02T11:53:00;9.47;;;6.23;;
5684;SDS011;2865;53.114;9.130;2024-03-02T11:55:26;8.77;;;6.70;;
5684;SDS011;2865;53.114;9.130;2024-03-02T11:57:52;8.70;;;7.47;;
5684;SDS011;2865;53.114;9.130;2024-03-02T12:00:17;8.33;;;7.10;;
5684;SDS011;2865;53.114;9.130;2024-03-02T12:02:42;7.10;;;6.03;;
5684;SDS011;2865;53.114;9.130;2024-03-02T12:05:08;7.23;;;6.20;;
5684;SDS011;2865;53.114;9.130;2024-03-02T12:07:34;5.67;;;5.07;;
5684;SDS011;2865;53.114;9.130;2024-03-02T12:10:00;9.50;;;7.07;;
5684;SDS011;2865;53.114;9.130;2024-03-02T12:12:25;7.40;;;6.00;;
5684;SDS011;2865;53.114;9.130;2024-03-02T12:14:51;9.17;;;7.27;;
5684;SDS011;2865;53.114;9.130;2024-03-02T12:17:17;9.60;;;7.83;;
5684;SDS011;2865;53.114;9.130;2024-03-02T12:19:42;6.93;;;6.23;;
5684;SDS011;2865;53.114;9.130;2024-03-02T12:22:07;6.00;;;5.27;;
5684;SDS011;2865;53.114;9.130;2024-03-02T12:24:32;11.00;;;6.43;;
5684;SDS011;2865;53.114;9.130;2024-03-02T12:26:58;7.60;;;6.03;;
5684;SDS011;2865;53.114;9.130;2024-03-02T12:29:23;6.27;;;5.63;;
5684;SDS011;2865;53.114;9.130;2024-03-02T12:31:48;11.10;;;5.97;;
5684;SDS011;2865;53.114;9.130;2024-03-02T12:34:14;10.53;;;5.57;;
5684;SDS011;2865;53.114;9.130;2024-03-02T12:36:39;6.17;;;4.73;;
5684;SDS011;2865;53.114;9.130;2024-03-02T12:39:04;6.60;;;4.63;;
5684;SDS011;2865;53.114;9.130;2024-03-02T12:41:30;5.40;;;4.90;;
5684;SDS011;2865;53.114;9.130;2024-03-02T12:43:55;7.57;;;4.40;;
5684;SDS011;2865;53.114;9.130;2024-03-02T12:46:20;4.57;;;4.17;;
5684;SDS011;2865;53.114;9.130;2024-03-02T12:48:45;4.93;;;4.43;;
5684;SDS011;2865;53.114;9.130;2024-03-02T12:51:11;4.67;;;3.93;;
5684;SDS011;2865;53.114;9.130;2024-03-02T12:53:36;5.60;;;4.90;;
5684;SDS011;2865;53.114;9.130;2024-03-02T12:56:01;7.40;;;5.00;;
5684;SDS011;2865;53.114;9.130;2024-03-02T12:58:26;5.20;;;4.50;;
5684;SDS011;2865;53.114;9.130;2024-03-02T13:01:05;8.90;;;6.20;;
5684;SDS011;2865;53.114;9.130;2024-03-02T13:03:23;8.57;;;5.87;;
5684;SDS011;2865;53.114;9.130;2024-03-02T13:05:49;8.03;;;5.60;;
5684;SDS011;2865;53.114;9.130;2024-03-02T13:08:14;7.10;;;6.20;;
5684;SDS011;2865;53.114;9.130;2024-03-02T13:10:39;8.03;;;5.70;;
5684;SDS011;2865;53.114;9.130;2024-03-02T13:13:04;7.07;;;5.37;;
5684;SDS011;2865;53.114;9.130;2024-03-02T13:15:30;7.53;;;5.43;;
5684;SDS011;2865;53.114;9.130;2024-03-02T13:17:58;5.23;;;4.73;;
5684;SDS011;2865;53.114;9.130;2024-03-02T13:20:20;8.17;;;4.87;;
5684;SDS011;2865;53.114;9.130;2024-03-02T13:22:46;5.10;;;4.53;;
5684;SDS011;2865;53.114;9.130;2024-03-02T13:25:11;7.10;;;4.80;;
5684;SDS011;2865;53.114;9.130;2024-03-02T13:27:36;5.70;;;4.80;;
5684;SDS011;2865;53.114;9.130;2024-03-02T13:30:02;6.67;;;4.97;;
5684;SDS011;2865;53.114;9.130;2024-03-02T13:32:27;5.67;;;5.10;;
5684;SDS011;2865;53.114;9.130;2024-03-02T13:34:53;5.97;;;5.03;;
5684;SDS011;2865;53.114;9.130;2024-03-02T13:37:19;7.20;;;6.00;;
5684;SDS011;2865;53.114;9.130;2024-03-02T13:39:43;5.10;;;4.40;;
5684;SDS011;2865;53.114;9.130;2024-03-02T13:42:09;6.10;;;5.50;;
5684;SDS011;2865;53.114;9.130;2024-03-02T13:44:34;6.20;;;5.10;;
5684;SDS011;2865;53.114;9.130;2024-03-02T13:47:00;7.10;;;5.90;;
5684;SDS011;2865;53.114;9.130;2024-03-02T13:49:26;7.90;;;5.80;;
5684;SDS011;2865;53.114;9.130;2024-03-02T13:51:54;5.80;;;4.87;;
5684;SDS011;2865;53.114;9.130;2024-03-02T13:54:19;6.60;;;5.77;;
5684;SDS011;2865;53.114;9.130;2024-03-02T13:56:44;6.90;;;5.70;;
5684;SDS011;2865;53.114;9.130;2024-03-02T13:59:10;7.63;;;6.00;;
5684;SDS011;2865;53.114;9.130;2024-03-02T14:01:35;7.77;;;5.37;;
5684;SDS011;2865;53.114;9.130;2024-03-02T14:04:00;8.03;;;5.70;;
5684;SDS011;2865;53.114;9.130;2024-03-02T14:06:26;6.13;;;5.00;;
5684;SDS011;2865;53.114;9.130;2024-03-02T14:08:51;6.13;;;5.53;;
5684;SDS011;2865;53.114;9.130;2024-03-02T14:11:16;6.53;;;5.07;;
5684;SDS011;2865;53.114;9.130;2024-03-02T14:13:41;8.53;;;5.30;;
5684;SDS011;2865;53.114;9.130;2024-03-02T14:16:07;6.53;;;5.13;;
5684;SDS011;2865;53.114;9.130;2024-03-02T14:18:32;6.40;;;5.50;;
5684;SDS011;2865;53.114;9.130;2024-03-02T14:20:57;10.47;;;5.53;;
5684;SDS011;2865;53.114;9.130;2024-03-02T14:23:23;12.83;;;5.53;;
5684;SDS011;2865;53.114;9.130;2024-03-02T14:25:48;6.57;;;5.83;;
5684;SDS011;2865;53.114;9.130;2024-03-02T14:28:13;6.97;;;5.60;;
5684;SDS011;2865;53.114;9.130;2024-03-02T14:30:38;5.70;;;5.07;;
5684;SDS011;2865;53.114;9.130;2024-03-02T14:33:04;6.50;;;4.87;;
5684;SDS011;2865;53.114;9.130;2024-03-02T14:35:29;6.60;;;5.70;;
5684;SDS011;2865;53.114;9.130;2024-03-02T14:37:55;7.60;;;5.77;;
5684;SDS011;2865;53.114;9.130;2024-03-02T14:40:20;6.30;;;4.93;;
5684;SDS011;2865;53.114;9.130;2024-03-02T14:42:45;6.07;;;5.03;;
5684;SDS011;2865;53.114;9.130;2024-03-02T14:45:10;5.40;;;4.90;;
5684;SDS011;2865;53.114;9.130;2024-03-02T14:47:36;6.50;;;5.20;;
5684;SDS011;2865;53.114;9.130;2024-03-02T14:50:01;5.80;;;4.80;;
5684;SDS011;2865;53.114;9.130;2024-03-02T14:52:26;5.87;;;4.53;;